sensor_id;sensor_type;location;lat;lon;timestamp;temperature;humidity
40077;DHT22;25777;47.824;18.982;2023-04-01T00:01:41;8.10;99.90
40077;DHT22;25777;47.824;18.982;2023-04-01T00:04:07;8.10;99.90
40077;DHT22;25777;47.824;18.982;2023-04-01T00:06:34;8.00;99.90
40077;DHT22;25777;47.824;18.982;2023-04-01T00:09:00;8.00;99.90
40077;DHT22;25777;47.824;18.982;2023-04-01T00:11:26;8.00;99.90
40077;DHT22;25777;47.824;18.982;2023-04-01T00:13:54;8.00;99.90
40077;DHT22;25777;47.824;18.982;2023-04-01T00:16:20;7.90;99.90
40077;DHT22;25777;47.824;18.982;2023-04-01T00:18:47;7.90;99.90
40077;DHT22;25777;47.824;18.982;2023-04-01T00:21:14;8.00;99.90
40077;DHT22;25777;47.824;18.982;2023-04-01T00:23:40;7.90;99.90
40077;DHT22;25777;47.824;18.982;2023-04-01T00:26:07;7.90;99.90
40077;DHT22;25777;47.824;18.982;2023-04-01T00:28:34;7.90;99.90
40077;DHT22;25777;47.824;18.982;2023-04-01T00:31:08;7.80;99.90
40077;DHT22;25777;47.824;18.982;2023-04-01T00:33:34;7.80;99.90
40077;DHT22;25777;47.824;18.982;2023-04-01T00:36:13;7.80;99.90
40077;DHT22;25777;47.824;18.982;2023-04-01T00:38:41;8.00;99.90
40077;DHT22;25777;47.824;18.982;2023-04-01T00:41:09;7.80;99.90
40077;DHT22;25777;47.824;18.982;2023-04-01T00:43:40;7.90;99.90
40077;DHT22;25777;47.824;18.982;2023-04-01T00:46:06;7.90;99.90
40077;DHT22;25777;47.824;18.982;2023-04-01T00:48:39;8.10;99.90
40077;DHT22;25777;47.824;18.982;2023-04-01T00:51:07;8.40;99.90
40077;DHT22;25777;47.824;18.982;2023-04-01T00:53:38;8.40;99.90
40077;DHT22;25777;47.824;18.982;2023-04-01T00:56:21;8.50;99.90
40077;DHT22;25777;47.824;18.982;2023-04-01T00:58:51;8.40;99.90
40077;DHT22;25777;47.824;18.982;2023-04-01T01:01:22;8.50;99.90
40077;DHT22;25777;47.824;18.982;2023-04-01T01:03:49;8.70;99.90
40077;DHT22;25777;47.824;18.982;2023-04-01T01:14:27;8.70;99.90
40077;DHT22;25777;47.824;18.982;2023-04-01T01:17:11;8.70;99.90
40077;DHT22;25777;47.824;18.982;2023-04-01T01:23:06;8.60;99.90
40077;DHT22;25777;47.824;18.982;2023-04-01T01:25:47;8.60;99.90
40077;DHT22;25777;47.824;18.982;2023-04-01T01:37:08;8.50;99.90
40077;DHT22;25777;47.824;18.982;2023-04-01T01:39:36;8.50;99.90
40077;DHT22;25777;47.824;18.982;2023-04-01T01:42:05;8.60;99.90
40077;DHT22;25777;47.824;18.982;2023-04-01T01:44:33;8.60;99.90
40077;DHT22;25777;47.824;18.982;2023-04-01T01:47:00;8.50;99.90
40077;DHT22;25777;47.824;18.982;2023-04-01T01:49:29;8.50;99.90
40077;DHT22;25777;47.824;18.982;2023-04-01T01:51:58;8.50;99.90
40077;DHT22;25777;47.824;18.982;2023-04-01T01:54:24;8.50;99.90
40077;DHT22;25777;47.824;18.982;2023-04-01T01:56:55;8.50;99.90
40077;DHT22;25777;47.824;18.982;2023-04-01T01:59:24;8.40;99.90
40077;DHT22;25777;47.824;18.982;2023-04-01T02:01:53;8.50;99.90
40077;DHT22;25777;47.824;18.982;2023-04-01T02:04:21;8.40;99.90
40077;DHT22;25777;47.824;18.982;2023-04-01T02:06:56;8.40;99.90
40077;DHT22;25777;47.824;18.982;2023-04-01T02:09:23;8.30;99.90
40077;DHT22;25777;47.824;18.982;2023-04-01T02:11:53;8.30;99.90
40077;DHT22;25777;47.824;18.982;2023-04-01T02:14:35;8.40;99.90
40077;DHT22;25777;47.824;18.982;2023-04-01T02:17:09;8.30;99.90
40077;DHT22;25777;47.824;18.982;2023-04-01T02:19:40;8.20;99.90
40077;DHT22;25777;47.824;18.982;2023-04-01T02:22:13;8.10;99.90
40077;DHT22;25777;47.824;18.982;2023-04-01T02:24:42;8.10;99.90
40077;DHT22;25777;47.824;18.982;2023-04-01T02:27:12;8.10;99.90
40077;DHT22;25777;47.824;18.982;2023-04-01T02:29:38;8.10;99.90
40077;DHT22;25777;47.824;18.982;2023-04-01T02:32:06;8.00;99.90
40077;DHT22;25777;47.824;18.982;2023-04-01T02:34:33;7.90;99.90
40077;DHT22;25777;47.824;18.982;2023-04-01T02:36:59;7.80;99.90
40077;DHT22;25777;47.824;18.982;2023-04-01T02:39:27;7.70;99.90
40077;DHT22;25777;47.824;18.982;2023-04-01T02:41:54;7.80;99.90
40077;DHT22;25777;47.824;18.982;2023-04-01T02:44:20;7.80;99.90
40077;DHT22;25777;47.824;18.982;2023-04-01T02:46:46;7.70;99.90
40077;DHT22;25777;47.824;18.982;2023-04-01T02:49:12;7.70;99.90
40077;DHT22;25777;47.824;18.982;2023-04-01T02:51:38;7.70;99.90
40077;DHT22;25777;47.824;18.982;2023-04-01T02:54:04;7.70;99.90
40077;DHT22;25777;47.824;18.982;2023-04-01T02:56:30;7.70;99.90
40077;DHT22;25777;47.824;18.982;2023-04-01T02:58:56;7.70;99.90
40077;DHT22;25777;47.824;18.982;2023-04-01T03:01:22;7.70;99.90
40077;DHT22;25777;47.824;18.982;2023-04-01T03:03:48;7.70;99.90
40077;DHT22;25777;47.824;18.982;2023-04-01T03:06:15;7.60;99.90
40077;DHT22;25777;47.824;18.982;2023-04-01T03:08:42;7.60;99.90
40077;DHT22;25777;47.824;18.982;2023-04-01T03:11:09;7.60;99.90
40077;DHT22;25777;47.824;18.982;2023-04-01T03:13:35;7.60;99.90
40077;DHT22;25777;47.824;18.982;2023-04-01T03:16:05;7.50;99.90
40077;DHT22;25777;47.824;18.982;2023-04-01T03:18:31;7.40;99.90
40077;DHT22;25777;47.824;18.982;2023-04-01T03:20:57;7.40;99.90
40077;DHT22;25777;47.824;18.982;2023-04-01T03:23:23;7.30;99.90
40077;DHT22;25777;47.824;18.982;2023-04-01T03:25:50;7.30;99.90
40077;DHT22;25777;47.824;18.982;2023-04-01T03:28:16;7.10;99.90
40077;DHT22;25777;47.824;18.982;2023-04-01T03:30:43;7.00;99.90
40077;DHT22;25777;47.824;18.982;2023-04-01T03:33:11;6.80;99.90
40077;DHT22;25777;47.824;18.982;2023-04-01T03:35:37;6.90;99.90
40077;DHT22;25777;47.824;18.982;2023-04-01T03:38:03;6.90;99.90
40077;DHT22;25777;47.824;18.982;2023-04-01T03:40:29;6.90;99.90
40077;DHT22;25777;47.824;18.982;2023-04-01T03:42:55;6.80;99.90
40077;DHT22;25777;47.824;18.982;2023-04-01T03:45:21;6.80;99.90
40077;DHT22;25777;47.824;18.982;2023-04-01T03:47:47;6.90;99.90
40077;DHT22;25777;47.824;18.982;2023-04-01T03:50:13;6.90;99.90
40077;DHT22;25777;47.824;18.982;2023-04-01T03:52:39;6.80;99.90
40077;DHT22;25777;47.824;18.982;2023-04-01T03:55:06;6.80;99.90
40077;DHT22;25777;47.824;18.982;2023-04-01T03:57:32;6.80;99.90
40077;DHT22;25777;47.824;18.982;2023-04-01T03:59:58;6.80;99.90
40077;DHT22;25777;47.824;18.982;2023-04-01T04:02:24;6.80;99.90
40077;DHT22;25777;47.824;18.982;2023-04-01T04:04:51;6.70;99.90
40077;DHT22;25777;47.824;18.982;2023-04-01T04:07:17;6.40;99.90
40077;DHT22;25777;47.824;18.982;2023-04-01T04:09:43;6.40;99.90
40077;DHT22;25777;47.824;18.982;2023-04-01T04:12:10;6.40;99.90
40077;DHT22;25777;47.824;18.982;2023-04-01T04:14:37;6.30;99.90
40077;DHT22;25777;47.824;18.982;2023-04-01T04:17:02;6.40;99.90
40077;DHT22;25777;47.824;18.982;2023-04-01T04:19:33;6.40;99.90
40077;DHT22;25777;47.824;18.982;2023-04-01T04:21:59;6.20;99.90
40077;DHT22;25777;47.824;18.982;2023-04-01T04:24:26;6.10;99.90
40077;DHT22;25777;47.824;18.982;2023-04-01T04:26:54;6.20;99.90
40077;DHT22;25777;47.824;18.982;2023-04-01T04:29:19;6.30;99.90
40077;DHT22;25777;47.824;18.982;2023-04-01T04:31:45;6.30;99.90
40077;DHT22;25777;47.824;18.982;2023-04-01T04:34:12;6.10;99.90
40077;DHT22;25777;47.824;18.982;2023-04-01T04:36:37;6.10;99.90
40077;DHT22;25777;47.824;18.982;2023-04-01T04:39:03;6.20;99.90
40077;DHT22;25777;47.824;18.982;2023-04-01T04:41:31;6.30;99.90
40077;DHT22;25777;47.824;18.982;2023-04-01T04:43:59;6.30;99.90
40077;DHT22;25777;47.824;18.982;2023-04-01T04:46:25;6.30;99.90
40077;DHT22;25777;47.824;18.982;2023-04-01T04:48:52;6.30;99.90
40077;DHT22;25777;47.824;18.982;2023-04-01T04:51:19;6.40;99.90
40077;DHT22;25777;47.824;18.982;2023-04-01T04:53:45;6.30;99.90
40077;DHT22;25777;47.824;18.982;2023-04-01T04:56:12;6.40;99.90
40077;DHT22;25777;47.824;18.982;2023-04-01T04:58:39;6.40;99.90
40077;DHT22;25777;47.824;18.982;2023-04-01T05:01:10;6.40;99.90
40077;DHT22;25777;47.824;18.982;2023-04-01T05:03:37;6.40;99.90
40077;DHT22;25777;47.824;18.982;2023-04-01T05:06:03;6.50;99.90
40077;DHT22;25777;47.824;18.982;2023-04-01T05:08:29;6.60;99.90
40077;DHT22;25777;47.824;18.982;2023-04-01T05:10:56;6.70;99.90
40077;DHT22;25777;47.824;18.982;2023-04-01T05:13:23;6.90;99.90
40077;DHT22;25777;47.824;18.982;2023-04-01T05:15:50;6.90;99.90
40077;DHT22;25777;47.824;18.982;2023-04-01T05:18:16;7.10;99.90
40077;DHT22;25777;47.824;18.982;2023-04-01T05:20:51;7.30;99.90
40077;DHT22;25777;47.824;18.982;2023-04-01T05:23:18;7.40;99.90
40077;DHT22;25777;47.824;18.982;2023-04-01T05:25:47;7.50;99.90
40077;DHT22;25777;47.824;18.982;2023-04-01T05:28:15;7.60;99.90
40077;DHT22;25777;47.824;18.982;2023-04-01T05:30:42;7.60;99.90
40077;DHT22;25777;47.824;18.982;2023-04-01T05:33:10;7.70;99.90
40077;DHT22;25777;47.824;18.982;2023-04-01T05:35:37;7.80;99.90
40077;DHT22;25777;47.824;18.982;2023-04-01T05:38:04;7.80;99.90
40077;DHT22;25777;47.824;18.982;2023-04-01T05:40:31;7.90;99.90
40077;DHT22;25777;47.824;18.982;2023-04-01T05:42:59;8.00;99.90
40077;DHT22;25777;47.824;18.982;2023-04-01T05:45:26;8.10;99.90
40077;DHT22;25777;47.824;18.982;2023-04-01T05:47:52;8.20;99.90
40077;DHT22;25777;47.824;18.982;2023-04-01T05:50:20;8.30;99.90
40077;DHT22;25777;47.824;18.982;2023-04-01T05:52:45;8.40;99.90
40077;DHT22;25777;47.824;18.982;2023-04-01T05:55:12;8.40;99.90
40077;DHT22;25777;47.824;18.982;2023-04-01T05:57:38;8.50;99.90
40077;DHT22;25777;47.824;18.982;2023-04-01T06:00:06;8.50;99.90
40077;DHT22;25777;47.824;18.982;2023-04-01T06:02:32;8.60;99.90
40077;DHT22;25777;47.824;18.982;2023-04-01T06:05:18;8.60;99.90
40077;DHT22;25777;47.824;18.982;2023-04-01T06:07:47;8.80;99.90
40077;DHT22;25777;47.824;18.982;2023-04-01T06:10:19;8.90;99.90
40077;DHT22;25777;47.824;18.982;2023-04-01T06:18:10;9.00;99.90
40077;DHT22;25777;47.824;18.982;2023-04-01T06:26:24;9.20;99.90
40077;DHT22;25777;47.824;18.982;2023-04-01T06:31:52;9.40;99.90
40077;DHT22;25777;47.824;18.982;2023-04-01T06:34:35;9.50;99.90
40077;DHT22;25777;47.824;18.982;2023-04-01T06:40:02;9.60;99.90
40077;DHT22;25777;47.824;18.982;2023-04-01T06:56:21;10.20;99.90
40077;DHT22;25777;47.824;18.982;2023-04-01T06:58:52;10.40;99.90
40077;DHT22;25777;47.824;18.982;2023-04-01T07:01:32;10.50;99.90
40077;DHT22;25777;47.824;18.982;2023-04-01T07:04:06;10.60;99.90
40077;DHT22;25777;47.824;18.982;2023-04-01T07:07:25;10.70;99.90
40077;DHT22;25777;47.824;18.982;2023-04-01T07:09:57;10.80;99.90
40077;DHT22;25777;47.824;18.982;2023-04-01T07:12:44;10.80;99.90
40077;DHT22;25777;47.824;18.982;2023-04-01T07:15:36;10.90;99.90
40077;DHT22;25777;47.824;18.982;2023-04-01T07:18:44;11.00;99.90
40077;DHT22;25777;47.824;18.982;2023-04-01T07:21:04;11.00;99.90
40077;DHT22;25777;47.824;18.982;2023-04-01T07:23:38;11.10;99.90
40077;DHT22;25777;47.824;18.982;2023-04-01T07:26:21;11.20;99.90
40077;DHT22;25777;47.824;18.982;2023-04-01T07:28:49;11.30;99.90
40077;DHT22;25777;47.824;18.982;2023-04-01T07:34:23;11.40;99.90
40077;DHT22;25777;47.824;18.982;2023-04-01T07:39:37;11.50;99.90
40077;DHT22;25777;47.824;18.982;2023-04-01T07:48:04;11.70;99.90
40077;DHT22;25777;47.824;18.982;2023-04-01T07:50:31;11.90;99.90
40077;DHT22;25777;47.824;18.982;2023-04-01T07:55:46;12.30;99.90
40077;DHT22;25777;47.824;18.982;2023-04-01T08:09:03;11.30;99.90
40077;DHT22;25777;47.824;18.982;2023-04-01T08:17:40;11.20;99.90
40077;DHT22;25777;47.824;18.982;2023-04-01T08:23:31;11.10;99.90
40077;DHT22;25777;47.824;18.982;2023-04-01T08:26:08;11.10;99.90
40077;DHT22;25777;47.824;18.982;2023-04-01T08:34:14;11.20;99.90
40077;DHT22;25777;47.824;18.982;2023-04-01T08:36:53;11.30;99.90
40077;DHT22;25777;47.824;18.982;2023-04-01T08:39:39;11.50;99.90
40077;DHT22;25777;47.824;18.982;2023-04-01T08:57:13;12.60;99.90
40077;DHT22;25777;47.824;18.982;2023-04-01T09:14:28;12.90;99.90
40077;DHT22;25777;47.824;18.982;2023-04-01T09:17:09;13.20;99.90
40077;DHT22;25777;47.824;18.982;2023-04-01T09:25:05;13.30;99.90
40077;DHT22;25777;47.824;18.982;2023-04-01T09:33:53;12.70;99.90
40077;DHT22;25777;47.824;18.982;2023-04-01T09:36:45;12.50;99.90
40077;DHT22;25777;47.824;18.982;2023-04-01T09:39:38;12.50;99.90
40077;DHT22;25777;47.824;18.982;2023-04-01T09:45:21;12.40;99.90
40077;DHT22;25777;47.824;18.982;2023-04-01T09:48:30;12.40;99.90
40077;DHT22;25777;47.824;18.982;2023-04-01T09:53:54;12.50;99.90
40077;DHT22;25777;47.824;18.982;2023-04-01T10:26:19;13.20;99.90
40077;DHT22;25777;47.824;18.982;2023-04-01T10:40:56;13.20;98.50
40077;DHT22;25777;47.824;18.982;2023-04-01T10:43:46;13.20;98.20
40077;DHT22;25777;47.824;18.982;2023-04-01T10:49:41;13.60;99.90
40077;DHT22;25777;47.824;18.982;2023-04-01T10:55:27;13.60;96.70
40077;DHT22;25777;47.824;18.982;2023-04-01T11:01:13;13.30;96.30
40077;DHT22;25777;47.824;18.982;2023-04-01T11:17:09;14.60;93.70
40077;DHT22;25777;47.824;18.982;2023-04-01T11:21:56;14.70;93.30
40077;DHT22;25777;47.824;18.982;2023-04-01T11:32:57;13.70;94.20
40077;DHT22;25777;47.824;18.982;2023-04-01T12:13:14;14.70;92.90
40077;DHT22;25777;47.824;18.982;2023-04-01T12:15:35;14.50;87.80
40077;DHT22;25777;47.824;18.982;2023-04-01T12:18:33;14.60;90.70
40077;DHT22;25777;47.824;18.982;2023-04-01T12:21:17;14.80;90.80
40077;DHT22;25777;47.824;18.982;2023-04-01T12:24:01;15.10;87.30
40077;DHT22;25777;47.824;18.982;2023-04-01T12:40:28;15.20;84.70
40077;DHT22;25777;47.824;18.982;2023-04-01T12:46:23;15.40;84.30
40077;DHT22;25777;47.824;18.982;2023-04-01T12:49:21;15.10;83.00
40077;DHT22;25777;47.824;18.982;2023-04-01T13:07:26;15.70;85.60
40077;DHT22;25777;47.824;18.982;2023-04-01T13:13:19;15.50;82.70
40077;DHT22;25777;47.824;18.982;2023-04-01T13:15:52;15.20;84.10
40077;DHT22;25777;47.824;18.982;2023-04-01T13:18:29;15.10;82.90
40077;DHT22;25777;47.824;18.982;2023-04-01T13:24:24;15.60;83.90
40077;DHT22;25777;47.824;18.982;2023-04-01T13:27:04;16.10;79.40
40077;DHT22;25777;47.824;18.982;2023-04-01T13:29:41;16.50;80.30
40077;DHT22;25777;47.824;18.982;2023-04-01T13:35:02;16.20;75.50
40077;DHT22;25777;47.824;18.982;2023-04-01T13:43:28;16.30;77.70
40077;DHT22;25777;47.824;18.982;2023-04-01T13:52:22;15.80;79.10
40077;DHT22;25777;47.824;18.982;2023-04-01T13:55:16;15.60;76.20
40077;DHT22;25777;47.824;18.982;2023-04-01T14:01:12;15.70;78.90
40077;DHT22;25777;47.824;18.982;2023-04-01T14:06:39;15.10;77.80
40077;DHT22;25777;47.824;18.982;2023-04-01T14:32:37;14.20;84.10
40077;DHT22;25777;47.824;18.982;2023-04-01T14:35:14;14.10;86.60
40077;DHT22;25777;47.824;18.982;2023-04-01T14:40:52;13.90;87.20
40077;DHT22;25777;47.824;18.982;2023-04-01T14:48:59;13.60;88.90
40077;DHT22;25777;47.824;18.982;2023-04-01T14:51:34;13.60;88.10
40077;DHT22;25777;47.824;18.982;2023-04-01T14:56:49;13.60;88.40
40077;DHT22;25777;47.824;18.982;2023-04-01T14:59:27;13.70;88.30
40077;DHT22;25777;47.824;18.982;2023-04-01T15:14:09;14.10;87.90
40077;DHT22;25777;47.824;18.982;2023-04-01T15:16:48;14.10;85.00
40077;DHT22;25777;47.824;18.982;2023-04-01T15:22:37;14.10;85.40
40077;DHT22;25777;47.824;18.982;2023-04-01T15:30:33;14.00;85.40
40077;DHT22;25777;47.824;18.982;2023-04-01T15:39:14;13.90;86.80
40077;DHT22;25777;47.824;18.982;2023-04-01T15:41:54;13.90;85.80
40077;DHT22;25777;47.824;18.982;2023-04-01T15:50:21;13.70;86.40
40077;DHT22;25777;47.824;18.982;2023-04-01T16:04:17;13.70;87.20
40077;DHT22;25777;47.824;18.982;2023-04-01T16:18:06;13.50;87.10
40077;DHT22;25777;47.824;18.982;2023-04-01T16:20:56;13.40;84.90
40077;DHT22;25777;47.824;18.982;2023-04-01T16:26:48;13.40;86.80
40077;DHT22;25777;47.824;18.982;2023-04-01T16:34:21;13.00;92.50
40077;DHT22;25777;47.824;18.982;2023-04-01T16:37:15;12.90;92.30
40077;DHT22;25777;47.824;18.982;2023-04-01T16:42:43;13.00;91.80
40077;DHT22;25777;47.824;18.982;2023-04-01T16:45:36;12.90;89.70
40077;DHT22;25777;47.824;18.982;2023-04-01T16:50:44;12.90;91.40
40077;DHT22;25777;47.824;18.982;2023-04-01T16:55:54;12.70;93.60
40077;DHT22;25777;47.824;18.982;2023-04-01T17:01:13;12.80;91.10
40077;DHT22;25777;47.824;18.982;2023-04-01T17:03:46;12.60;92.10
40077;DHT22;25777;47.824;18.982;2023-04-01T17:06:18;12.50;92.70
40077;DHT22;25777;47.824;18.982;2023-04-01T17:12:10;12.40;92.30
40077;DHT22;25777;47.824;18.982;2023-04-01T17:14:59;12.20;94.60
40077;DHT22;25777;47.824;18.982;2023-04-01T17:17:37;12.00;94.90
40077;DHT22;25777;47.824;18.982;2023-04-01T17:20:24;11.90;95.90
40077;DHT22;25777;47.824;18.982;2023-04-01T17:31:55;11.50;98.30
40077;DHT22;25777;47.824;18.982;2023-04-01T17:35:08;11.30;99.40
40077;DHT22;25777;47.824;18.982;2023-04-01T17:40:29;11.10;99.90
40077;DHT22;25777;47.824;18.982;2023-04-01T17:45:54;10.90;99.90
40077;DHT22;25777;47.824;18.982;2023-04-01T17:48:35;10.70;99.90
40077;DHT22;25777;47.824;18.982;2023-04-01T17:51:28;10.50;99.90
40077;DHT22;25777;47.824;18.982;2023-04-01T17:54:08;10.40;99.90
40077;DHT22;25777;47.824;18.982;2023-04-01T17:59:39;10.10;99.90
40077;DHT22;25777;47.824;18.982;2023-04-01T18:02:54;10.10;99.90
40077;DHT22;25777;47.824;18.982;2023-04-01T18:08:54;10.00;99.90
40077;DHT22;25777;47.824;18.982;2023-04-01T18:23:12;9.40;99.90
40077;DHT22;25777;47.824;18.982;2023-04-01T18:25:38;9.40;99.90
40077;DHT22;25777;47.824;18.982;2023-04-01T18:30:39;9.00;99.90
40077;DHT22;25777;47.824;18.982;2023-04-01T18:39:02;9.00;99.90
40077;DHT22;25777;47.824;18.982;2023-04-01T18:42:05;8.90;99.90
40077;DHT22;25777;47.824;18.982;2023-04-01T18:44:50;8.80;99.90
40077;DHT22;25777;47.824;18.982;2023-04-01T18:47:44;8.70;99.90
40077;DHT22;25777;47.824;18.982;2023-04-01T18:50:56;8.70;99.90
40077;DHT22;25777;47.824;18.982;2023-04-01T18:53:43;8.70;99.90
40077;DHT22;25777;47.824;18.982;2023-04-01T18:56:32;8.70;99.90
40077;DHT22;25777;47.824;18.982;2023-04-01T19:07:54;8.40;99.90
40077;DHT22;25777;47.824;18.982;2023-04-01T19:10:46;8.20;99.90
40077;DHT22;25777;47.824;18.982;2023-04-01T19:22:21;8.10;99.90
40077;DHT22;25777;47.824;18.982;2023-04-01T19:27:50;7.80;99.90
40077;DHT22;25777;47.824;18.982;2023-04-01T19:33:05;7.90;99.90
40077;DHT22;25777;47.824;18.982;2023-04-01T19:35:39;7.90;99.90
40077;DHT22;25777;47.824;18.982;2023-04-01T19:38:35;7.90;99.90
40077;DHT22;25777;47.824;18.982;2023-04-01T19:46:55;7.70;99.90
40077;DHT22;25777;47.824;18.982;2023-04-01T19:49:53;7.70;99.90
40077;DHT22;25777;47.824;18.982;2023-04-01T19:52:31;7.60;99.90
40077;DHT22;25777;47.824;18.982;2023-04-01T19:58:22;7.40;99.90
40077;DHT22;25777;47.824;18.982;2023-04-01T20:00:54;7.40;99.90
40077;DHT22;25777;47.824;18.982;2023-04-01T20:03:57;7.50;99.90
40077;DHT22;25777;47.824;18.982;2023-04-01T20:06:37;7.50;99.90
40077;DHT22;25777;47.824;18.982;2023-04-01T20:09:31;7.60;99.90
40077;DHT22;25777;47.824;18.982;2023-04-01T20:14:52;7.70;99.90
40077;DHT22;25777;47.824;18.982;2023-04-01T20:17:22;7.60;99.90
40077;DHT22;25777;47.824;18.982;2023-04-01T20:25:24;7.30;99.90
40077;DHT22;25777;47.824;18.982;2023-04-01T20:28:13;7.10;99.90
40077;DHT22;25777;47.824;18.982;2023-04-01T20:36:26;7.10;99.90
40077;DHT22;25777;47.824;18.982;2023-04-01T20:44:54;7.20;99.90
40077;DHT22;25777;47.824;18.982;2023-04-01T20:47:54;7.20;99.90
40077;DHT22;25777;47.824;18.982;2023-04-01T20:50:34;7.20;99.90
40077;DHT22;25777;47.824;18.982;2023-04-01T20:53:22;7.10;99.90
40077;DHT22;25777;47.824;18.982;2023-04-01T20:56:23;7.10;99.90
40077;DHT22;25777;47.824;18.982;2023-04-01T21:01:59;7.50;99.90
40077;DHT22;25777;47.824;18.982;2023-04-01T21:13:30;7.30;99.90
40077;DHT22;25777;47.824;18.982;2023-04-01T21:16:31;7.40;99.90
40077;DHT22;25777;47.824;18.982;2023-04-01T21:19:24;7.40;99.90
40077;DHT22;25777;47.824;18.982;2023-04-01T21:21:59;7.80;99.90
40077;DHT22;25777;47.824;18.982;2023-04-01T21:25:03;7.80;99.90
40077;DHT22;25777;47.824;18.982;2023-04-01T21:27:52;7.90;99.90
40077;DHT22;25777;47.824;18.982;2023-04-01T21:33:32;7.90;99.90
40077;DHT22;25777;47.824;18.982;2023-04-01T21:40:05;8.00;99.90
40077;DHT22;25777;47.824;18.982;2023-04-01T21:42:15;8.00;99.90
40077;DHT22;25777;47.824;18.982;2023-04-01T22:01:34;7.80;99.90
40077;DHT22;25777;47.824;18.982;2023-04-01T22:04:46;7.70;99.90
40077;DHT22;25777;47.824;18.982;2023-04-01T22:07:23;7.50;99.90
40077;DHT22;25777;47.824;18.982;2023-04-01T22:15:06;7.20;99.90
40077;DHT22;25777;47.824;18.982;2023-04-01T22:20:57;7.00;99.90
40077;DHT22;25777;47.824;18.982;2023-04-01T22:28:51;6.80;99.90
40077;DHT22;25777;47.824;18.982;2023-04-01T22:31:28;6.70;99.90
40077;DHT22;25777;47.824;18.982;2023-04-01T22:39:59;6.40;99.90
40077;DHT22;25777;47.824;18.982;2023-04-01T22:42:37;6.40;99.90
40077;DHT22;25777;47.824;18.982;2023-04-01T22:53:32;6.00;99.90
40077;DHT22;25777;47.824;18.982;2023-04-01T22:56:07;6.00;99.90
40077;DHT22;25777;47.824;18.982;2023-04-01T22:58:46;5.80;99.90
40077;DHT22;25777;47.824;18.982;2023-04-01T23:01:20;5.80;99.90
40077;DHT22;25777;47.824;18.982;2023-04-01T23:03:49;6.00;99.90
40077;DHT22;25777;47.824;18.982;2023-04-01T23:06:38;6.00;99.90
40077;DHT22;25777;47.824;18.982;2023-04-01T23:09:28;6.00;99.90
40077;DHT22;25777;47.824;18.982;2023-04-01T23:12:16;6.00;99.90
40077;DHT22;25777;47.824;18.982;2023-04-01T23:15:00;6.10;99.90
40077;DHT22;25777;47.824;18.982;2023-04-01T23:28:20;6.10;99.90
40077;DHT22;25777;47.824;18.982;2023-04-01T23:30:52;5.90;99.90
40077;DHT22;25777;47.824;18.982;2023-04-01T23:33:22;5.80;99.90
40077;DHT22;25777;47.824;18.982;2023-04-01T23:36:02;5.90;99.90
40077;DHT22;25777;47.824;18.982;2023-04-01T23:38:38;5.90;99.90
40077;DHT22;25777;47.824;18.982;2023-04-01T23:41:23;6.00;99.90
40077;DHT22;25777;47.824;18.982;2023-04-01T23:43:54;6.00;99.90
40077;DHT22;25777;47.824;18.982;2023-04-01T23:46:21;6.10;99.90
40077;DHT22;25777;47.824;18.982;2023-04-01T23:48:48;6.00;99.90
40077;DHT22;25777;47.824;18.982;2023-04-01T23:51:36;6.00;99.90
40077;DHT22;25777;47.824;18.982;2023-04-01T23:57:26;6.20;99.90
